createdAt,value
2022-11-10T00:00:02.746Z,10.50
2022-11-10T00:02:31.358Z,10.50
2022-11-10T00:05:00.170Z,10.40
2022-11-10T00:07:30.544Z,10.50
2022-11-10T00:09:59.246Z,10.50
2022-11-10T00:12:27.916Z,10.50
2022-11-10T00:15:13.880Z,10.60
2022-11-10T00:17:42.761Z,10.60
2022-11-10T00:20:12.842Z,10.60
2022-11-10T00:22:43.053Z,10.60
2022-11-10T00:25:12.570Z,10.50
2022-11-10T00:27:41.366Z,10.50
2022-11-10T00:30:10.872Z,10.50
2022-11-10T00:32:39.802Z,10.50
2022-11-10T00:35:09.758Z,10.50
2022-11-10T00:37:38.306Z,10.50
2022-11-10T00:40:09.803Z,10.50
2022-11-10T00:42:38.513Z,10.60
2022-11-10T00:45:08.751Z,10.60
2022-11-10T00:47:37.352Z,10.60
2022-11-10T00:50:07.067Z,10.60
2022-11-10T00:52:35.598Z,10.60
2022-11-10T00:55:04.393Z,10.60
2022-11-10T00:57:34.340Z,10.60
2022-11-10T01:00:03.009Z,10.60
2022-11-10T01:02:31.579Z,10.50
2022-11-10T01:05:00.190Z,10.50
2022-11-10T01:07:28.993Z,10.50
2022-11-10T01:09:57.558Z,10.50
2022-11-10T01:12:29.541Z,10.50
2022-11-10T01:14:59.724Z,10.50
2022-11-10T01:17:28.527Z,10.50
2022-11-10T01:19:57.156Z,10.50
2022-11-10T01:22:25.800Z,10.50
2022-11-10T01:24:54.365Z,10.50
2022-11-10T01:27:22.945Z,10.50
2022-11-10T01:29:51.700Z,10.50
2022-11-10T01:32:21.731Z,10.50
2022-11-10T01:34:50.326Z,10.50
2022-11-10T01:37:18.939Z,10.40
2022-11-10T01:39:47.694Z,10.40
2022-11-10T01:42:16.463Z,10.40
2022-11-10T01:45:45.543Z,10.50
2022-11-10T01:48:20.335Z,10.50
2022-11-10T01:50:50.594Z,10.50
2022-11-10T01:53:26.152Z,10.50
2022-11-10T01:55:57.269Z,10.40
2022-11-10T01:58:34.109Z,10.40
2022-11-10T02:01:02.773Z,10.40
2022-11-10T02:03:41.701Z,10.40
2022-11-10T02:06:12.214Z,10.40
2022-11-10T02:08:42.417Z,10.30
2022-11-10T02:11:11.333Z,10.30
2022-11-10T02:13:40.370Z,10.30
2022-11-10T02:16:10.291Z,10.20
2022-11-10T02:18:40.506Z,10.20
2022-11-10T02:21:11.255Z,10.10
2022-11-10T02:23:49.503Z,10.10
2022-11-10T02:26:23.386Z,10.10
2022-11-10T02:28:52.186Z,10.10
2022-11-10T02:31:20.790Z,10.10
2022-11-10T02:33:49.534Z,10.10
2022-11-10T02:36:19.443Z,10.10
2022-11-10T02:38:48.037Z,10.10
2022-11-10T02:41:16.717Z,10.10
2022-11-10T02:43:45.463Z,10.10
2022-11-10T02:46:14.051Z,10.10
2022-11-10T02:48:42.615Z,10.10
2022-11-10T02:51:11.282Z,10.00
2022-11-10T02:53:41.256Z,10.00
2022-11-10T02:56:10.064Z,10.00
2022-11-10T02:58:38.683Z,10.00
2022-11-10T03:01:08.058Z,10.00
2022-11-10T03:03:36.845Z,10.00
2022-11-10T03:06:05.742Z,10.00
2022-11-10T03:08:34.320Z,10.00
2022-11-10T03:11:04.319Z,10.00
2022-11-10T03:13:51.656Z,10.00
2022-11-10T03:16:21.890Z,9.80
2022-11-10T03:18:50.418Z,9.90
2022-11-10T03:21:19.002Z,9.90
2022-11-10T03:23:47.556Z,9.80
2022-11-10T03:26:17.511Z,9.80
2022-11-10T03:28:46.139Z,9.70
2022-11-10T03:31:14.662Z,9.70
2022-11-10T03:33:43.259Z,9.70
2022-11-10T03:36:11.872Z,9.70
2022-11-10T03:38:40.516Z,9.60
2022-11-10T03:41:24.359Z,9.60
2022-11-10T03:43:54.415Z,9.50
2022-11-10T03:46:23.060Z,9.50
2022-11-10T03:48:53.735Z,9.60
2022-11-10T03:51:23.683Z,9.50
2022-11-10T03:53:52.285Z,9.60
2022-11-10T03:56:20.872Z,9.60
2022-11-10T03:58:49.469Z,9.60
2022-11-10T04:01:19.539Z,9.60
2022-11-10T04:03:51.543Z,9.60
2022-11-10T04:06:38.351Z,9.50
2022-11-10T04:09:07.909Z,9.60
2022-11-10T04:11:53.783Z,9.50
2022-11-10T04:14:40.036Z,9.50
2022-11-10T04:17:09.992Z,9.60
2022-11-10T04:19:38.542Z,9.60
2022-11-10T04:22:07.305Z,9.60
2022-11-10T04:24:35.879Z,9.60
2022-11-10T04:27:04.549Z,9.60
2022-11-10T04:29:33.101Z,9.60
2022-11-10T04:32:01.783Z,9.60
2022-11-10T04:34:31.712Z,9.60
2022-11-10T04:37:00.265Z,9.60
2022-11-10T04:39:28.802Z,9.60
2022-11-10T04:42:02.537Z,9.60
2022-11-10T04:44:31.595Z,9.60
2022-11-10T04:47:00.109Z,9.60
2022-11-10T04:49:28.922Z,9.70
2022-11-10T04:51:58.921Z,9.60
2022-11-10T04:54:27.809Z,9.60
2022-11-10T04:56:56.424Z,9.60
2022-11-10T04:59:24.978Z,9.60
2022-11-10T05:01:53.597Z,9.60
2022-11-10T05:04:22.166Z,9.50
2022-11-10T05:06:50.970Z,9.50
2022-11-10T05:09:20.921Z,9.50
2022-11-10T05:11:49.607Z,9.50
2022-11-10T05:14:18.484Z,9.40
2022-11-10T05:16:47.234Z,9.50
2022-11-10T05:19:15.786Z,9.40
2022-11-10T05:21:44.486Z,9.50
2022-11-10T05:24:13.095Z,9.40
2022-11-10T05:26:43.306Z,9.40
2022-11-10T05:29:11.982Z,9.40
2022-11-10T05:31:40.550Z,9.40
2022-11-10T05:34:09.101Z,9.30
2022-11-10T05:36:37.654Z,9.40
2022-11-10T05:39:06.426Z,9.30
2022-11-10T05:41:35.115Z,9.30
2022-11-10T05:44:05.082Z,9.30
2022-11-10T05:46:33.694Z,9.30
2022-11-10T05:49:02.218Z,9.30
2022-11-10T05:51:30.999Z,9.30
2022-11-10T05:53:59.565Z,9.30
2022-11-10T05:56:28.137Z,9.30
2022-11-10T05:58:56.690Z,9.30
2022-11-10T06:01:26.632Z,9.30
2022-11-10T06:03:55.276Z,9.30
2022-11-10T06:06:24.130Z,9.40
2022-11-10T06:08:52.710Z,9.30
2022-11-10T06:11:21.648Z,9.30
2022-11-10T06:13:50.431Z,9.40
2022-11-10T06:16:19.057Z,9.40
2022-11-10T06:18:49.044Z,9.40
2022-11-10T06:21:17.755Z,9.30
2022-11-10T06:23:46.315Z,9.30
2022-11-10T06:26:15.037Z,9.30
2022-11-10T06:28:43.663Z,9.20
2022-11-10T06:31:12.219Z,9.20
2022-11-10T06:33:42.868Z,9.20
2022-11-10T06:36:12.919Z,9.20
2022-11-10T06:38:41.480Z,9.20
2022-11-10T06:41:10.149Z,9.20
2022-11-10T06:43:38.734Z,9.20
2022-11-10T06:46:07.491Z,9.30
2022-11-10T06:48:36.250Z,9.40
2022-11-10T06:51:05.451Z,9.40
2022-11-10T06:53:35.480Z,9.40
2022-11-10T06:56:04.059Z,9.50
2022-11-10T06:58:32.655Z,9.50
2022-11-10T07:01:02.077Z,9.40
2022-11-10T07:03:30.673Z,9.50
2022-11-10T07:06:00.028Z,9.60
2022-11-10T07:08:28.638Z,9.70
2022-11-10T07:10:58.587Z,9.70
2022-11-10T07:13:27.183Z,9.80
2022-11-10T07:15:55.895Z,9.90
2022-11-10T07:18:24.641Z,9.90
2022-11-10T07:20:53.228Z,10.00
2022-11-10T07:23:22.135Z,10.10
2022-11-10T07:25:50.864Z,10.20
2022-11-10T07:28:24.635Z,10.30
2022-11-10T07:30:57.225Z,10.30
2022-11-10T07:33:25.837Z,10.40
2022-11-10T07:35:57.964Z,10.40
2022-11-10T07:38:26.591Z,10.40
2022-11-10T07:40:56.149Z,10.40
2022-11-10T07:43:27.297Z,10.30
2022-11-10T07:45:55.943Z,10.30
2022-11-10T07:48:24.723Z,10.30
2022-11-10T07:50:53.559Z,10.30
2022-11-10T07:53:23.072Z,10.30
2022-11-10T07:55:51.959Z,10.20
2022-11-10T07:58:20.794Z,10.30
2022-11-10T08:00:50.818Z,10.30
2022-11-10T08:03:22.129Z,10.30
2022-11-10T08:05:51.280Z,10.30
2022-11-10T08:08:20.268Z,10.30
2022-11-10T08:10:48.935Z,10.40
2022-11-10T08:13:17.594Z,10.40
2022-11-10T08:15:46.153Z,10.50
2022-11-10T08:18:20.337Z,10.50
2022-11-10T08:20:49.879Z,10.50
2022-11-10T08:23:19.087Z,10.60
2022-11-10T08:25:48.547Z,10.60
2022-11-10T08:28:19.680Z,10.70
2022-11-10T08:30:49.578Z,10.80
2022-11-10T08:33:22.193Z,10.90
2022-11-10T08:35:53.326Z,11.10
2022-11-10T08:38:24.800Z,11.20
2022-11-10T08:40:53.558Z,11.40
2022-11-10T08:43:22.465Z,11.60
2022-11-10T08:45:51.336Z,11.80
2022-11-10T08:48:22.286Z,12.00
2022-11-10T08:50:51.879Z,12.20
2022-11-10T08:53:23.967Z,12.40
2022-11-10T08:55:54.073Z,12.70
2022-11-10T08:58:25.052Z,13.00
2022-11-10T09:00:54.139Z,13.30
2022-11-10T09:03:26.599Z,13.60
2022-11-10T09:05:58.533Z,13.60
2022-11-10T09:08:27.853Z,13.70
2022-11-10T09:10:56.548Z,13.90
2022-11-10T09:13:29.826Z,14.10
2022-11-10T09:16:03.240Z,14.30
2022-11-10T09:18:33.779Z,14.30
2022-11-10T09:21:06.792Z,14.30
2022-11-10T09:23:35.491Z,14.50
2022-11-10T09:26:04.227Z,14.60
2022-11-10T09:28:32.817Z,14.60
2022-11-10T09:31:01.692Z,14.30
2022-11-10T09:33:30.244Z,14.30
2022-11-10T09:36:02.252Z,14.20
2022-11-10T09:38:30.894Z,14.20
2022-11-10T09:41:03.586Z,13.90
2022-11-10T09:43:39.700Z,14.00
2022-11-10T09:46:17.143Z,14.00
2022-11-10T09:48:53.275Z,13.80
2022-11-10T09:51:28.926Z,13.60
2022-11-10T09:54:00.239Z,13.60
2022-11-10T09:56:34.597Z,13.40
2022-11-10T09:59:15.378Z,13.40
2022-11-10T10:01:51.158Z,13.30
2022-11-10T10:04:51.736Z,13.20
2022-11-10T10:07:28.690Z,13.20
2022-11-10T10:10:14.500Z,13.10
2022-11-10T10:13:09.435Z,13.10
2022-11-10T10:15:49.912Z,13.10
2022-11-10T10:18:29.796Z,13.00
2022-11-10T10:21:30.951Z,13.00
2022-11-10T10:24:10.345Z,12.90
2022-11-10T10:26:46.055Z,12.90
2022-11-10T10:29:23.138Z,12.90
2022-11-10T10:31:53.948Z,12.90
2022-11-10T10:34:28.322Z,12.90
2022-11-10T10:36:57.270Z,12.90
2022-11-10T10:39:35.741Z,13.00
2022-11-10T10:42:08.037Z,13.00
2022-11-10T10:44:36.875Z,13.00
2022-11-10T10:47:05.539Z,13.00
2022-11-10T10:49:36.415Z,12.90
2022-11-10T10:52:11.388Z,12.80
2022-11-10T10:54:41.820Z,12.80
2022-11-10T10:57:24.287Z,12.80
2022-11-10T10:59:54.158Z,12.80
2022-11-10T11:02:30.143Z,12.80
2022-11-10T11:05:14.823Z,12.90
2022-11-10T11:07:55.393Z,12.80
2022-11-10T11:10:28.392Z,12.90
2022-11-10T11:13:13.517Z,12.80
2022-11-10T11:15:42.154Z,12.80
2022-11-10T11:18:16.916Z,12.80
2022-11-10T11:20:57.482Z,12.80
2022-11-10T11:24:12.178Z,12.80
2022-11-10T11:26:53.456Z,12.90
2022-11-10T11:29:44.250Z,12.80
2022-11-10T11:32:42.291Z,12.80
2022-11-10T11:35:25.561Z,12.80
2022-11-10T11:38:11.963Z,12.80
2022-11-10T11:40:54.917Z,12.80
2022-11-10T11:43:56.498Z,12.80
2022-11-10T11:46:41.683Z,12.70
2022-11-10T11:49:52.245Z,12.60
2022-11-10T11:52:34.797Z,12.70
2022-11-10T11:55:24.056Z,12.70
2022-11-10T11:58:23.541Z,12.60
2022-11-10T12:01:08.409Z,12.60
2022-11-10T12:04:11.056Z,12.50
2022-11-10T12:06:56.214Z,12.60
2022-11-10T12:09:37.426Z,12.60
2022-11-10T12:12:45.774Z,12.60
2022-11-10T12:15:33.482Z,12.70
2022-11-10T12:18:20.927Z,12.80
2022-11-10T12:21:07.048Z,12.70
2022-11-10T12:23:54.466Z,12.60
2022-11-10T12:26:40.203Z,12.70
2022-11-10T12:29:23.339Z,12.60
2022-11-10T12:31:59.192Z,12.70
2022-11-10T12:34:37.806Z,12.70
2022-11-10T12:37:11.775Z,12.80
2022-11-10T12:39:49.726Z,12.80
2022-11-10T12:42:24.038Z,12.70
2022-11-10T12:45:05.958Z,12.80
2022-11-10T12:47:44.204Z,12.80
2022-11-10T12:50:39.784Z,12.80
2022-11-10T12:53:19.680Z,12.70
2022-11-10T12:55:57.401Z,12.70
2022-11-10T12:58:26.904Z,12.70
2022-11-10T13:01:02.579Z,12.70
2022-11-10T13:03:35.656Z,12.60
2022-11-10T13:06:08.392Z,12.70
2022-11-10T13:08:46.995Z,12.70
2022-11-10T13:11:32.224Z,12.70
2022-11-10T13:14:03.887Z,12.70
2022-11-10T13:16:52.103Z,12.70
2022-11-10T13:19:51.229Z,12.70
2022-11-10T13:22:48.339Z,12.70
2022-11-10T13:26:03.262Z,12.80
2022-11-10T13:28:59.281Z,12.80
2022-11-10T13:31:57.925Z,12.70
2022-11-10T13:34:33.309Z,12.70
2022-11-10T13:37:03.342Z,12.70
2022-11-10T13:39:35.091Z,12.70
2022-11-10T13:42:19.364Z,12.70
2022-11-10T13:44:48.128Z,12.70
2022-11-10T13:47:53.726Z,12.70
2022-11-10T13:50:41.590Z,12.70
2022-11-10T13:53:33.951Z,12.80
2022-11-10T13:56:20.132Z,12.90
2022-11-10T13:58:50.571Z,12.90
2022-11-10T14:01:29.097Z,12.90
2022-11-10T14:04:03.046Z,12.90
2022-11-10T14:06:45.131Z,12.90
2022-11-10T14:09:29.230Z,13.00
2022-11-10T14:12:07.415Z,13.00
2022-11-10T14:14:55.242Z,12.90
2022-11-10T14:17:32.032Z,12.90
2022-11-10T14:20:01.290Z,13.00
2022-11-10T14:22:37.170Z,13.00
2022-11-10T14:25:18.880Z,12.90
2022-11-10T14:27:51.518Z,12.90
2022-11-10T14:30:26.136Z,12.90
2022-11-10T14:33:01.120Z,12.80
2022-11-10T14:35:32.883Z,12.80
2022-11-10T14:38:02.946Z,12.80
2022-11-10T14:40:32.869Z,12.70
2022-11-10T14:43:02.902Z,12.70
2022-11-10T14:45:31.788Z,12.60
2022-11-10T14:48:01.830Z,12.50
2022-11-10T14:50:34.002Z,12.40
2022-11-10T14:53:09.030Z,12.40
2022-11-10T14:55:38.341Z,12.30
2022-11-10T14:58:15.116Z,12.20
2022-11-10T15:00:46.568Z,12.20
2022-11-10T15:03:24.536Z,12.10
2022-11-10T15:05:58.551Z,12.00
2022-11-10T15:08:31.432Z,12.00
2022-11-10T15:11:02.383Z,12.00
2022-11-10T15:13:40.701Z,11.90
2022-11-10T15:16:28.179Z,11.90
2022-11-10T15:18:58.189Z,11.80
2022-11-10T15:21:34.160Z,11.80
2022-11-10T15:24:07.466Z,11.80
2022-11-10T15:26:41.899Z,11.70
2022-11-10T15:29:22.868Z,11.70
2022-11-10T15:31:53.728Z,11.60
2022-11-10T15:34:42.468Z,11.60
2022-11-10T15:37:14.125Z,11.60
2022-11-10T15:39:42.800Z,11.60
2022-11-10T15:42:16.690Z,11.50
2022-11-10T15:44:48.303Z,11.40
2022-11-10T15:47:20.973Z,11.40
2022-11-10T15:49:49.650Z,11.50
2022-11-10T15:52:21.560Z,11.40
2022-11-10T15:54:51.932Z,11.40
2022-11-10T15:57:24.727Z,11.40
2022-11-10T15:59:54.774Z,11.30
2022-11-10T16:02:26.773Z,11.30
2022-11-10T16:04:59.748Z,11.20
2022-11-10T16:07:29.933Z,11.20
2022-11-10T16:09:58.503Z,11.20
2022-11-10T16:12:28.483Z,11.10
2022-11-10T16:14:59.812Z,11.20
2022-11-10T16:17:28.630Z,11.10
2022-11-10T16:23:12.552Z,10.90
2022-11-10T16:25:42.375Z,10.90
2022-11-10T16:28:13.178Z,10.80
2022-11-10T16:30:57.329Z,10.80
2022-11-10T16:33:28.054Z,10.70
2022-11-10T16:36:02.329Z,10.80
2022-11-10T16:38:33.382Z,10.80
2022-11-10T16:41:08.329Z,10.80
2022-11-10T16:43:37.104Z,10.70
2022-11-10T16:46:29.328Z,10.70
2022-11-10T16:49:09.223Z,10.70
2022-11-10T16:51:48.248Z,10.70
2022-11-10T16:54:18.110Z,10.70
2022-11-10T16:56:46.994Z,10.70
2022-11-10T16:59:15.820Z,10.70
2022-11-10T17:01:50.061Z,10.70
2022-11-10T17:04:18.867Z,10.70
2022-11-10T17:06:47.567Z,10.70
2022-11-10T17:09:20.213Z,10.60
2022-11-10T17:11:49.027Z,10.60
2022-11-10T17:14:18.408Z,10.60
2022-11-10T17:16:49.460Z,10.60
2022-11-10T17:19:24.653Z,10.70
2022-11-10T17:21:56.739Z,10.70
2022-11-10T17:24:25.880Z,10.70
2022-11-10T17:26:55.074Z,10.60
2022-11-10T17:29:24.632Z,10.60
2022-11-10T17:31:55.918Z,10.50
2022-11-10T17:34:24.613Z,10.50
2022-11-10T17:36:54.092Z,10.40
2022-11-10T17:39:23.109Z,10.40
2022-11-10T17:41:51.790Z,10.40
2022-11-10T17:44:20.999Z,10.40
2022-11-10T17:46:49.787Z,10.40
2022-11-10T17:49:22.576Z,10.40
2022-11-10T17:51:56.733Z,10.40
2022-11-10T17:54:26.143Z,10.40
2022-11-10T17:56:54.802Z,10.40
2022-11-10T17:59:23.515Z,10.30
2022-11-10T18:01:52.154Z,10.30
2022-11-10T18:04:22.242Z,10.30
2022-11-10T18:06:50.943Z,10.20
2022-11-10T18:09:19.555Z,10.20
2022-11-10T18:11:48.115Z,10.10
2022-11-10T18:14:22.463Z,10.20
2022-11-10T18:16:51.121Z,10.20
2022-11-10T18:19:21.347Z,10.20
2022-11-10T18:21:49.911Z,10.20
2022-11-10T18:24:34.212Z,10.20
2022-11-10T18:27:08.872Z,10.20
2022-11-10T18:29:40.823Z,10.20
2022-11-10T18:32:10.737Z,10.20
2022-11-10T18:34:42.486Z,10.10
2022-11-10T18:37:34.665Z,10.10
2022-11-10T18:40:15.668Z,10.20
2022-11-10T18:43:06.120Z,10.20
2022-11-10T18:45:45.848Z,10.10
2022-11-10T18:48:24.295Z,10.10
2022-11-10T18:51:35.103Z,10.10
2022-11-10T18:54:06.858Z,10.10
2022-11-10T18:56:35.846Z,10.10
2022-11-10T18:59:04.931Z,10.10
2022-11-10T19:01:33.642Z,10.10
2022-11-10T19:04:02.474Z,10.10
2022-11-10T19:06:32.438Z,10.10
2022-11-10T19:09:01.129Z,10.10
2022-11-10T19:11:29.842Z,10.10
2022-11-10T19:14:00.894Z,10.00
2022-11-10T19:16:35.531Z,10.00
2022-11-10T19:19:04.319Z,10.00
2022-11-10T19:21:34.563Z,10.00
2022-11-10T19:24:03.120Z,10.00
2022-11-10T19:26:33.168Z,10.00
2022-11-10T19:29:02.111Z,10.00
2022-11-10T19:31:30.780Z,10.00
2022-11-10T19:33:59.921Z,10.00
2022-11-10T19:36:29.983Z,10.00
2022-11-10T19:39:00.058Z,10.00
2022-11-10T19:41:31.423Z,10.00
2022-11-10T19:44:01.455Z,10.00
2022-11-10T19:46:36.650Z,10.00
2022-11-10T19:49:06.355Z,10.00
2022-11-10T19:51:35.523Z,10.00
2022-11-10T19:54:06.220Z,10.10
2022-11-10T19:56:35.788Z,10.10
2022-11-10T19:59:04.496Z,10.00
2022-11-10T20:01:33.680Z,10.00
2022-11-10T20:04:03.090Z,10.00
2022-11-10T20:06:32.092Z,10.00
2022-11-10T20:09:00.775Z,10.00
2022-11-10T20:11:30.849Z,10.00
2022-11-10T20:14:01.604Z,10.00
2022-11-10T20:16:30.276Z,9.90
2022-11-10T20:18:58.960Z,9.90
2022-11-10T20:21:28.204Z,10.00
2022-11-10T20:23:58.192Z,9.90
2022-11-10T20:26:27.031Z,10.00
2022-11-10T20:28:57.157Z,9.90
2022-11-10T20:31:27.528Z,9.90
2022-11-10T20:33:57.185Z,10.00
2022-11-10T20:36:28.862Z,10.00
2022-11-10T20:39:00.561Z,10.00
2022-11-10T20:41:33.001Z,9.90
2022-11-10T20:44:02.950Z,10.00
2022-11-10T20:46:53.328Z,9.90
2022-11-10T20:49:20.270Z,9.90
2022-11-10T20:51:49.005Z,9.90
2022-11-10T20:54:17.576Z,9.90
2022-11-10T20:56:46.183Z,10.00
2022-11-10T20:59:16.590Z,10.00
2022-11-10T21:01:45.354Z,10.00
2022-11-10T21:04:14.379Z,10.00
2022-11-10T21:06:43.019Z,10.00
2022-11-10T21:09:11.875Z,10.10
2022-11-10T21:11:58.295Z,10.30
2022-11-10T21:14:28.396Z,10.30
2022-11-10T21:16:58.017Z,10.30
2022-11-10T21:19:26.799Z,10.20
2022-11-10T21:21:55.374Z,10.20
2022-11-10T21:24:24.056Z,10.10
2022-11-10T21:26:52.706Z,10.00
2022-11-10T21:29:21.381Z,10.00
2022-11-10T21:31:51.399Z,10.00
2022-11-10T21:34:20.638Z,10.00
2022-11-10T21:36:49.229Z,10.00
2022-11-10T21:39:17.890Z,10.00
2022-11-10T21:41:46.488Z,10.00
2022-11-10T21:44:15.165Z,9.90
2022-11-10T21:46:43.777Z,9.90
2022-11-10T21:49:13.801Z,9.90
2022-11-10T21:51:42.792Z,9.60
2022-11-10T21:54:12.399Z,9.30
2022-11-10T21:56:41.156Z,9.20
2022-11-10T21:59:09.727Z,9.30
2022-11-10T22:01:38.567Z,9.40
2022-11-10T22:04:07.646Z,9.50
2022-11-10T22:06:55.148Z,9.50
2022-11-10T22:09:37.779Z,9.50
2022-11-10T22:12:24.156Z,9.50
2022-11-10T22:15:10.549Z,9.40
2022-11-10T22:17:56.886Z,9.40
2022-11-10T22:20:25.675Z,9.40
2022-11-10T22:22:55.750Z,9.40
2022-11-10T22:25:24.544Z,9.30
2022-11-10T22:27:53.287Z,9.30
2022-11-10T22:30:22.072Z,9.30
2022-11-10T22:32:50.911Z,9.10
2022-11-10T22:35:33.423Z,9.00
2022-11-10T22:38:08.044Z,9.00
2022-11-10T22:40:55.680Z,9.00
2022-11-10T22:43:42.091Z,9.00
2022-11-10T22:46:10.838Z,9.10
2022-11-10T22:48:39.606Z,9.10
2022-11-10T22:51:08.366Z,9.10
2022-11-10T22:53:39.800Z,9.10
2022-11-10T22:56:09.198Z,9.00
2022-11-10T22:58:37.986Z,8.90
2022-11-10T23:01:08.962Z,8.90
2022-11-10T23:03:39.567Z,8.90
2022-11-10T23:06:09.486Z,8.90
2022-11-10T23:08:39.764Z,8.90
2022-11-10T23:11:12.307Z,8.90
2022-11-10T23:13:42.197Z,8.90
2022-11-10T23:16:13.894Z,8.90
2022-11-10T23:18:45.854Z,8.90
2022-11-10T23:21:18.356Z,8.80
2022-11-10T23:23:51.021Z,8.70
2022-11-10T23:26:22.313Z,8.70
2022-11-10T23:28:52.513Z,8.70
2022-11-10T23:31:23.598Z,8.70
2022-11-10T23:33:54.679Z,8.60
2022-11-10T23:36:26.608Z,8.50
2022-11-10T23:38:57.504Z,8.60
2022-11-10T23:41:27.154Z,8.60
2022-11-10T23:43:56.215Z,8.60
2022-11-10T23:46:25.154Z,8.50
2022-11-10T23:48:54.016Z,8.50
2022-11-10T23:51:24.827Z,8.40
2022-11-10T23:53:53.607Z,8.50
2022-11-10T23:56:23.676Z,8.50
2022-11-10T23:58:52.514Z,8.50
